sensor_id;sensor_type;location;lat;lon;timestamp;P1;durP1;ratioP1;P2;durP2;ratioP2
25175;SDS011;13135;55.166;61.286;2022-10-31T00:00:21;13.50;;;6.20;;
25175;SDS011;13135;55.166;61.286;2022-10-31T00:03:05;12.50;;;6.60;;
25175;SDS011;13135;55.166;61.286;2022-10-31T00:05:49;10.53;;;6.17;;
25175;SDS011;13135;55.166;61.286;2022-10-31T00:09:14;11.07;;;6.23;;
25175;SDS011;13135;55.166;61.286;2022-10-31T00:11:57;9.77;;;5.73;;
25175;SDS011;13135;55.166;61.286;2022-10-31T00:14:41;13.30;;;5.53;;
25175;SDS011;13135;55.166;61.286;2022-10-31T00:17:28;11.83;;;6.23;;
25175;SDS011;13135;55.166;61.286;2022-10-31T00:20:15;14.23;;;6.10;;
25175;SDS011;13135;55.166;61.286;2022-10-31T00:23:00;11.70;;;6.03;;
25175;SDS011;13135;55.166;61.286;2022-10-31T00:25:44;11.17;;;5.53;;
25175;SDS011;13135;55.166;61.286;2022-10-31T00:28:25;9.43;;;5.13;;
25175;SDS011;13135;55.166;61.286;2022-10-31T00:31:10;9.87;;;5.43;;
25175;SDS011;13135;55.166;61.286;2022-10-31T00:33:55;13.77;;;7.23;;
25175;SDS011;13135;55.166;61.286;2022-10-31T00:36:40;10.03;;;5.63;;
25175;SDS011;13135;55.166;61.286;2022-10-31T00:39:25;12.80;;;6.97;;
25175;SDS011;13135;55.166;61.286;2022-10-31T00:42:10;12.77;;;6.83;;
25175;SDS011;13135;55.166;61.286;2022-10-31T00:44:55;12.53;;;6.60;;
25175;SDS011;13135;55.166;61.286;2022-10-31T00:47:40;11.47;;;6.33;;
25175;SDS011;13135;55.166;61.286;2022-10-31T00:50:24;14.17;;;6.17;;
25175;SDS011;13135;55.166;61.286;2022-10-31T00:53:08;11.33;;;5.47;;
25175;SDS011;13135;55.166;61.286;2022-10-31T00:55:52;13.00;;;5.93;;
25175;SDS011;13135;55.166;61.286;2022-10-31T00:58:36;11.33;;;5.70;;
25175;SDS011;13135;55.166;61.286;2022-10-31T01:01:18;11.03;;;5.80;;
25175;SDS011;13135;55.166;61.286;2022-10-31T01:04:03;11.43;;;6.17;;
25175;SDS011;13135;55.166;61.286;2022-10-31T01:06:48;10.33;;;5.87;;
25175;SDS011;13135;55.166;61.286;2022-10-31T01:09:32;10.83;;;6.30;;
25175;SDS011;13135;55.166;61.286;2022-10-31T01:12:18;12.53;;;5.93;;
25175;SDS011;13135;55.166;61.286;2022-10-31T01:15:03;10.93;;;5.70;;
25175;SDS011;13135;55.166;61.286;2022-10-31T01:17:49;9.07;;;4.90;;
25175;SDS011;13135;55.166;61.286;2022-10-31T01:20:34;8.80;;;5.67;;
25175;SDS011;13135;55.166;61.286;2022-10-31T01:23:15;11.23;;;6.07;;
25175;SDS011;13135;55.166;61.286;2022-10-31T01:26:02;10.67;;;5.60;;
25175;SDS011;13135;55.166;61.286;2022-10-31T01:28:48;13.93;;;5.90;;
25175;SDS011;13135;55.166;61.286;2022-10-31T01:31:39;12.03;;;5.50;;
25175;SDS011;13135;55.166;61.286;2022-10-31T01:34:24;10.80;;;5.30;;
25175;SDS011;13135;55.166;61.286;2022-10-31T01:37:08;11.63;;;5.10;;
25175;SDS011;13135;55.166;61.286;2022-10-31T01:39:53;8.73;;;5.07;;
25175;SDS011;13135;55.166;61.286;2022-10-31T01:42:38;11.57;;;6.00;;
25175;SDS011;13135;55.166;61.286;2022-10-31T01:45:23;9.40;;;5.33;;
25175;SDS011;13135;55.166;61.286;2022-10-31T01:48:13;10.13;;;5.40;;
25175;SDS011;13135;55.166;61.286;2022-10-31T01:50:57;9.67;;;5.90;;
25175;SDS011;13135;55.166;61.286;2022-10-31T01:53:41;9.13;;;5.90;;
25175;SDS011;13135;55.166;61.286;2022-10-31T01:56:23;8.37;;;5.23;;
25175;SDS011;13135;55.166;61.286;2022-10-31T01:59:08;12.63;;;5.67;;
25175;SDS011;13135;55.166;61.286;2022-10-31T02:01:52;10.90;;;5.63;;
25175;SDS011;13135;55.166;61.286;2022-10-31T02:04:36;7.37;;;4.17;;
25175;SDS011;13135;55.166;61.286;2022-10-31T02:07:22;8.73;;;4.80;;
25175;SDS011;13135;55.166;61.286;2022-10-31T02:10:02;9.83;;;5.67;;
25175;SDS011;13135;55.166;61.286;2022-10-31T02:12:45;16.43;;;7.77;;
25175;SDS011;13135;55.166;61.286;2022-10-31T02:15:30;8.93;;;5.67;;
25175;SDS011;13135;55.166;61.286;2022-10-31T02:18:15;12.53;;;5.23;;
25175;SDS011;13135;55.166;61.286;2022-10-31T02:23:56;11.57;;;5.83;;
25175;SDS011;13135;55.166;61.286;2022-10-31T02:26:45;12.37;;;5.20;;
25175;SDS011;13135;55.166;61.286;2022-10-31T02:35:57;7.73;;;4.40;;
25175;SDS011;13135;55.166;61.286;2022-10-31T02:41:46;6.90;;;5.07;;
25175;SDS011;13135;55.166;61.286;2022-10-31T02:44:49;7.80;;;5.07;;
25175;SDS011;13135;55.166;61.286;2022-10-31T02:47:48;7.07;;;4.47;;
25175;SDS011;13135;55.166;61.286;2022-10-31T02:50:33;7.10;;;4.90;;
25175;SDS011;13135;55.166;61.286;2022-10-31T02:53:17;10.53;;;5.57;;
25175;SDS011;13135;55.166;61.286;2022-10-31T02:56:04;9.13;;;5.80;;
25175;SDS011;13135;55.166;61.286;2022-10-31T02:58:56;10.37;;;5.90;;
25175;SDS011;13135;55.166;61.286;2022-10-31T03:01:46;15.37;;;5.80;;
25175;SDS011;13135;55.166;61.286;2022-10-31T03:04:48;9.47;;;5.60;;
25175;SDS011;13135;55.166;61.286;2022-10-31T03:07:42;8.33;;;5.23;;
25175;SDS011;13135;55.166;61.286;2022-10-31T03:10:40;12.17;;;5.67;;
25175;SDS011;13135;55.166;61.286;2022-10-31T03:13:32;10.83;;;5.93;;
25175;SDS011;13135;55.166;61.286;2022-10-31T03:16:16;11.97;;;6.23;;
25175;SDS011;13135;55.166;61.286;2022-10-31T03:19:03;8.80;;;4.97;;
25175;SDS011;13135;55.166;61.286;2022-10-31T03:21:51;12.20;;;5.53;;
25175;SDS011;13135;55.166;61.286;2022-10-31T03:24:36;8.77;;;5.47;;
25175;SDS011;13135;55.166;61.286;2022-10-31T03:27:22;8.73;;;5.37;;
25175;SDS011;13135;55.166;61.286;2022-10-31T03:30:06;10.33;;;5.70;;
25175;SDS011;13135;55.166;61.286;2022-10-31T03:32:53;7.47;;;5.00;;
25175;SDS011;13135;55.166;61.286;2022-10-31T03:35:36;8.90;;;5.10;;
25175;SDS011;13135;55.166;61.286;2022-10-31T03:38:21;9.23;;;5.40;;
25175;SDS011;13135;55.166;61.286;2022-10-31T03:41:07;11.80;;;6.77;;
25175;SDS011;13135;55.166;61.286;2022-10-31T03:43:55;7.83;;;5.27;;
25175;SDS011;13135;55.166;61.286;2022-10-31T03:46:38;7.20;;;4.97;;
25175;SDS011;13135;55.166;61.286;2022-10-31T03:49:19;9.67;;;5.67;;
25175;SDS011;13135;55.166;61.286;2022-10-31T03:52:08;8.80;;;5.33;;
25175;SDS011;13135;55.166;61.286;2022-10-31T03:55:10;10.03;;;5.60;;
25175;SDS011;13135;55.166;61.286;2022-10-31T03:57:57;8.63;;;5.80;;
25175;SDS011;13135;55.166;61.286;2022-10-31T04:00:46;11.07;;;5.20;;
25175;SDS011;13135;55.166;61.286;2022-10-31T04:03:33;9.07;;;5.40;;
25175;SDS011;13135;55.166;61.286;2022-10-31T04:06:17;9.90;;;5.73;;
25175;SDS011;13135;55.166;61.286;2022-10-31T04:09:03;9.90;;;5.53;;
25175;SDS011;13135;55.166;61.286;2022-10-31T04:11:50;8.20;;;5.53;;
25175;SDS011;13135;55.166;61.286;2022-10-31T04:14:32;9.60;;;5.83;;
25175;SDS011;13135;55.166;61.286;2022-10-31T04:17:18;7.97;;;4.90;;
25175;SDS011;13135;55.166;61.286;2022-10-31T04:20:04;7.47;;;5.17;;
25175;SDS011;13135;55.166;61.286;2022-10-31T04:22:49;10.23;;;6.07;;
25175;SDS011;13135;55.166;61.286;2022-10-31T04:25:33;7.27;;;4.57;;
25175;SDS011;13135;55.166;61.286;2022-10-31T04:28:18;9.20;;;5.50;;
25175;SDS011;13135;55.166;61.286;2022-10-31T04:31:05;7.90;;;5.57;;
25175;SDS011;13135;55.166;61.286;2022-10-31T04:33:55;9.53;;;6.53;;
25175;SDS011;13135;55.166;61.286;2022-10-31T04:36:40;8.27;;;5.37;;
25175;SDS011;13135;55.166;61.286;2022-10-31T04:39:24;7.47;;;5.43;;
25175;SDS011;13135;55.166;61.286;2022-10-31T04:42:10;9.83;;;5.57;;
25175;SDS011;13135;55.166;61.286;2022-10-31T04:44:54;8.50;;;6.13;;
25175;SDS011;13135;55.166;61.286;2022-10-31T04:47:38;7.80;;;5.57;;
25175;SDS011;13135;55.166;61.286;2022-10-31T04:50:23;9.83;;;5.83;;
25175;SDS011;13135;55.166;61.286;2022-10-31T04:53:07;8.37;;;5.73;;
25175;SDS011;13135;55.166;61.286;2022-10-31T04:55:52;9.73;;;6.23;;
25175;SDS011;13135;55.166;61.286;2022-10-31T04:58:37;8.83;;;6.23;;
25175;SDS011;13135;55.166;61.286;2022-10-31T05:01:22;9.53;;;6.07;;
25175;SDS011;13135;55.166;61.286;2022-10-31T05:04:07;9.93;;;5.23;;
25175;SDS011;13135;55.166;61.286;2022-10-31T05:06:52;9.20;;;6.47;;
25175;SDS011;13135;55.166;61.286;2022-10-31T05:09:36;11.57;;;6.10;;
25175;SDS011;13135;55.166;61.286;2022-10-31T05:12:26;8.10;;;5.57;;
25175;SDS011;13135;55.166;61.286;2022-10-31T05:15:11;8.27;;;5.30;;
25175;SDS011;13135;55.166;61.286;2022-10-31T05:17:57;9.40;;;5.70;;
25175;SDS011;13135;55.166;61.286;2022-10-31T05:20:47;10.97;;;5.87;;
25175;SDS011;13135;55.166;61.286;2022-10-31T05:23:32;8.73;;;5.80;;
25175;SDS011;13135;55.166;61.286;2022-10-31T05:26:16;7.17;;;4.80;;
25175;SDS011;13135;55.166;61.286;2022-10-31T05:29:00;9.47;;;5.20;;
25175;SDS011;13135;55.166;61.286;2022-10-31T05:31:45;7.17;;;4.67;;
25175;SDS011;13135;55.166;61.286;2022-10-31T05:34:32;7.63;;;5.70;;
25175;SDS011;13135;55.166;61.286;2022-10-31T05:37:17;8.50;;;5.50;;
25175;SDS011;13135;55.166;61.286;2022-10-31T05:40:03;6.40;;;4.87;;
25175;SDS011;13135;55.166;61.286;2022-10-31T05:42:50;6.50;;;4.80;;
25175;SDS011;13135;55.166;61.286;2022-10-31T05:45:40;7.17;;;5.00;;
25175;SDS011;13135;55.166;61.286;2022-10-31T05:48:25;5.57;;;3.70;;
25175;SDS011;13135;55.166;61.286;2022-10-31T05:51:12;5.37;;;3.87;;
25175;SDS011;13135;55.166;61.286;2022-10-31T05:53:57;5.10;;;3.77;;
25175;SDS011;13135;55.166;61.286;2022-10-31T05:56:42;5.47;;;4.00;;
25175;SDS011;13135;55.166;61.286;2022-10-31T05:59:27;5.90;;;4.00;;
25175;SDS011;13135;55.166;61.286;2022-10-31T06:02:12;5.77;;;4.00;;
25175;SDS011;13135;55.166;61.286;2022-10-31T06:04:56;6.80;;;4.03;;
25175;SDS011;13135;55.166;61.286;2022-10-31T06:07:41;5.60;;;4.03;;
25175;SDS011;13135;55.166;61.286;2022-10-31T06:10:26;6.43;;;4.50;;
25175;SDS011;13135;55.166;61.286;2022-10-31T06:13:11;6.40;;;4.50;;
25175;SDS011;13135;55.166;61.286;2022-10-31T06:15:56;5.50;;;4.30;;
25175;SDS011;13135;55.166;61.286;2022-10-31T06:18:41;7.43;;;4.93;;
25175;SDS011;13135;55.166;61.286;2022-10-31T06:21:25;5.80;;;4.10;;
25175;SDS011;13135;55.166;61.286;2022-10-31T06:24:09;5.57;;;4.20;;
25175;SDS011;13135;55.166;61.286;2022-10-31T06:26:53;5.83;;;4.20;;
25175;SDS011;13135;55.166;61.286;2022-10-31T06:29:38;5.77;;;4.00;;
25175;SDS011;13135;55.166;61.286;2022-10-31T06:32:22;5.17;;;4.00;;
25175;SDS011;13135;55.166;61.286;2022-10-31T06:35:09;6.80;;;4.57;;
25175;SDS011;13135;55.166;61.286;2022-10-31T06:37:53;6.23;;;4.30;;
25175;SDS011;13135;55.166;61.286;2022-10-31T06:40:43;5.83;;;4.20;;
25175;SDS011;13135;55.166;61.286;2022-10-31T06:43:25;6.23;;;4.47;;
25175;SDS011;13135;55.166;61.286;2022-10-31T06:46:09;7.50;;;4.77;;
25175;SDS011;13135;55.166;61.286;2022-10-31T06:48:54;6.30;;;4.50;;
25175;SDS011;13135;55.166;61.286;2022-10-31T06:51:41;5.17;;;3.70;;
25175;SDS011;13135;55.166;61.286;2022-10-31T06:54:25;7.13;;;4.50;;
25175;SDS011;13135;55.166;61.286;2022-10-31T06:57:10;6.23;;;4.33;;
25175;SDS011;13135;55.166;61.286;2022-10-31T06:59:51;6.30;;;4.23;;
25175;SDS011;13135;55.166;61.286;2022-10-31T07:02:35;6.43;;;3.97;;
25175;SDS011;13135;55.166;61.286;2022-10-31T07:05:20;5.87;;;3.67;;
25175;SDS011;13135;55.166;61.286;2022-10-31T07:08:06;6.13;;;4.20;;
25175;SDS011;13135;55.166;61.286;2022-10-31T07:10:54;7.00;;;5.03;;
25175;SDS011;13135;55.166;61.286;2022-10-31T07:13:39;5.93;;;4.50;;
25175;SDS011;13135;55.166;61.286;2022-10-31T07:16:24;5.43;;;3.63;;
25175;SDS011;13135;55.166;61.286;2022-10-31T07:19:08;7.10;;;4.43;;
25175;SDS011;13135;55.166;61.286;2022-10-31T07:21:54;4.23;;;3.33;;
25175;SDS011;13135;55.166;61.286;2022-10-31T07:24:39;4.70;;;3.03;;
25175;SDS011;13135;55.166;61.286;2022-10-31T07:27:23;5.30;;;4.13;;
25175;SDS011;13135;55.166;61.286;2022-10-31T07:30:10;4.70;;;3.47;;
25175;SDS011;13135;55.166;61.286;2022-10-31T07:32:54;3.97;;;3.27;;
25175;SDS011;13135;55.166;61.286;2022-10-31T07:35:39;5.13;;;4.03;;
25175;SDS011;13135;55.166;61.286;2022-10-31T07:38:23;3.47;;;2.90;;
25175;SDS011;13135;55.166;61.286;2022-10-31T07:41:08;6.03;;;3.40;;
25175;SDS011;13135;55.166;61.286;2022-10-31T07:43:52;4.00;;;3.10;;
25175;SDS011;13135;55.166;61.286;2022-10-31T07:46:34;3.73;;;3.23;;
25175;SDS011;13135;55.166;61.286;2022-10-31T07:49:18;4.00;;;3.20;;
25175;SDS011;13135;55.166;61.286;2022-10-31T07:52:03;2.70;;;2.50;;
25175;SDS011;13135;55.166;61.286;2022-10-31T07:54:48;3.57;;;2.90;;
25175;SDS011;13135;55.166;61.286;2022-10-31T07:57:33;4.30;;;3.30;;
25175;SDS011;13135;55.166;61.286;2022-10-31T08:00:18;4.03;;;3.03;;
25175;SDS011;13135;55.166;61.286;2022-10-31T08:03:06;3.93;;;3.53;;
25175;SDS011;13135;55.166;61.286;2022-10-31T08:05:50;3.70;;;3.10;;
25175;SDS011;13135;55.166;61.286;2022-10-31T08:08:35;4.03;;;3.20;;
25175;SDS011;13135;55.166;61.286;2022-10-31T08:11:21;3.80;;;3.37;;
25175;SDS011;13135;55.166;61.286;2022-10-31T08:14:05;4.00;;;3.27;;
25175;SDS011;13135;55.166;61.286;2022-10-31T08:16:51;3.73;;;2.67;;
25175;SDS011;13135;55.166;61.286;2022-10-31T08:19:34;4.23;;;3.33;;
25175;SDS011;13135;55.166;61.286;2022-10-31T08:22:18;3.40;;;2.90;;
25175;SDS011;13135;55.166;61.286;2022-10-31T08:25:02;3.23;;;2.90;;
25175;SDS011;13135;55.166;61.286;2022-10-31T08:27:49;3.63;;;2.80;;
25175;SDS011;13135;55.166;61.286;2022-10-31T08:30:36;3.60;;;2.80;;
25175;SDS011;13135;55.166;61.286;2022-10-31T08:33:19;3.10;;;2.77;;
25175;SDS011;13135;55.166;61.286;2022-10-31T08:36:03;3.23;;;2.90;;
25175;SDS011;13135;55.166;61.286;2022-10-31T08:38:46;3.07;;;2.50;;
25175;SDS011;13135;55.166;61.286;2022-10-31T08:41:31;3.30;;;3.00;;
25175;SDS011;13135;55.166;61.286;2022-10-31T08:44:20;3.30;;;2.53;;
25175;SDS011;13135;55.166;61.286;2022-10-31T08:47:03;2.83;;;2.30;;
25175;SDS011;13135;55.166;61.286;2022-10-31T08:49:49;2.90;;;2.57;;
25175;SDS011;13135;55.166;61.286;2022-10-31T08:52:33;2.90;;;2.60;;
25175;SDS011;13135;55.166;61.286;2022-10-31T08:55:17;3.67;;;3.00;;
25175;SDS011;13135;55.166;61.286;2022-10-31T08:58:03;2.43;;;2.20;;
25175;SDS011;13135;55.166;61.286;2022-10-31T09:00:48;2.20;;;1.90;;
25175;SDS011;13135;55.166;61.286;2022-10-31T09:03:31;3.60;;;2.70;;
25175;SDS011;13135;55.166;61.286;2022-10-31T09:06:17;2.97;;;2.37;;
25175;SDS011;13135;55.166;61.286;2022-10-31T09:09:02;2.43;;;2.07;;
25175;SDS011;13135;55.166;61.286;2022-10-31T09:11:46;3.20;;;2.27;;
25175;SDS011;13135;55.166;61.286;2022-10-31T09:14:31;2.33;;;2.10;;
25175;SDS011;13135;55.166;61.286;2022-10-31T09:17:12;2.97;;;2.50;;
25175;SDS011;13135;55.166;61.286;2022-10-31T09:19:57;2.73;;;2.30;;
25175;SDS011;13135;55.166;61.286;2022-10-31T09:22:42;2.50;;;2.30;;
25175;SDS011;13135;55.166;61.286;2022-10-31T09:25:26;2.80;;;2.60;;
25175;SDS011;13135;55.166;61.286;2022-10-31T09:28:12;1.70;;;1.57;;
25175;SDS011;13135;55.166;61.286;2022-10-31T09:30:55;2.50;;;2.30;;
25175;SDS011;13135;55.166;61.286;2022-10-31T09:33:39;2.30;;;2.10;;
25175;SDS011;13135;55.166;61.286;2022-10-31T09:36:26;1.93;;;1.77;;
25175;SDS011;13135;55.166;61.286;2022-10-31T09:39:11;1.77;;;1.57;;
25175;SDS011;13135;55.166;61.286;2022-10-31T09:44:51;2.47;;;1.80;;
25175;SDS011;13135;55.166;61.286;2022-10-31T09:50:38;2.67;;;2.00;;
25175;SDS011;13135;55.166;61.286;2022-10-31T09:53:32;1.80;;;1.50;;
25175;SDS011;13135;55.166;61.286;2022-10-31T09:56:18;2.27;;;1.87;;
25175;SDS011;13135;55.166;61.286;2022-10-31T09:59:02;2.20;;;1.97;;
25175;SDS011;13135;55.166;61.286;2022-10-31T10:01:49;2.33;;;1.53;;
25175;SDS011;13135;55.166;61.286;2022-10-31T10:04:38;2.23;;;2.00;;
25175;SDS011;13135;55.166;61.286;2022-10-31T10:07:32;2.80;;;2.00;;
25175;SDS011;13135;55.166;61.286;2022-10-31T10:13:42;2.70;;;2.10;;
25175;SDS011;13135;55.166;61.286;2022-10-31T10:16:48;2.30;;;2.10;;
25175;SDS011;13135;55.166;61.286;2022-10-31T10:22:37;2.43;;;2.20;;
25175;SDS011;13135;55.166;61.286;2022-10-31T10:25:22;2.60;;;2.20;;
25175;SDS011;13135;55.166;61.286;2022-10-31T10:28:13;2.97;;;2.40;;
25175;SDS011;13135;55.166;61.286;2022-10-31T10:31:01;2.70;;;2.30;;
25175;SDS011;13135;55.166;61.286;2022-10-31T10:33:54;2.70;;;2.20;;
25175;SDS011;13135;55.166;61.286;2022-10-31T10:36:50;2.50;;;2.30;;
25175;SDS011;13135;55.166;61.286;2022-10-31T10:39:43;3.03;;;2.47;;
25175;SDS011;13135;55.166;61.286;2022-10-31T10:42:27;2.97;;;2.33;;
25175;SDS011;13135;55.166;61.286;2022-10-31T10:45:14;3.23;;;2.83;;
25175;SDS011;13135;55.166;61.286;2022-10-31T10:48:05;2.37;;;2.17;;
25175;SDS011;13135;55.166;61.286;2022-10-31T10:50:52;2.40;;;2.20;;
25175;SDS011;13135;55.166;61.286;2022-10-31T10:53:41;3.80;;;2.30;;
25175;SDS011;13135;55.166;61.286;2022-10-31T10:56:23;2.90;;;2.50;;
25175;SDS011;13135;55.166;61.286;2022-10-31T10:59:09;3.13;;;2.83;;
25175;SDS011;13135;55.166;61.286;2022-10-31T11:01:50;3.03;;;2.60;;
25175;SDS011;13135;55.166;61.286;2022-10-31T11:04:35;3.27;;;2.17;;
25175;SDS011;13135;55.166;61.286;2022-10-31T11:07:19;3.30;;;2.80;;
25175;SDS011;13135;55.166;61.286;2022-10-31T11:10:04;3.20;;;2.90;;
25175;SDS011;13135;55.166;61.286;2022-10-31T11:16:07;3.83;;;2.67;;
25175;SDS011;13135;55.166;61.286;2022-10-31T11:18:47;2.53;;;2.33;;
25175;SDS011;13135;55.166;61.286;2022-10-31T11:21:33;3.90;;;2.93;;
25175;SDS011;13135;55.166;61.286;2022-10-31T11:24:21;3.23;;;2.93;;
25175;SDS011;13135;55.166;61.286;2022-10-31T11:27:20;3.60;;;2.80;;
25175;SDS011;13135;55.166;61.286;2022-10-31T11:30:05;4.53;;;3.17;;
25175;SDS011;13135;55.166;61.286;2022-10-31T11:32:52;3.53;;;2.80;;
25175;SDS011;13135;55.166;61.286;2022-10-31T11:35:38;4.10;;;3.03;;
25175;SDS011;13135;55.166;61.286;2022-10-31T11:38:23;4.13;;;3.20;;
25175;SDS011;13135;55.166;61.286;2022-10-31T11:41:09;3.03;;;2.73;;
25175;SDS011;13135;55.166;61.286;2022-10-31T11:43:55;3.57;;;3.27;;
25175;SDS011;13135;55.166;61.286;2022-10-31T11:46:40;3.10;;;2.80;;
25175;SDS011;13135;55.166;61.286;2022-10-31T11:49:35;4.13;;;2.90;;
25175;SDS011;13135;55.166;61.286;2022-10-31T11:52:21;4.50;;;3.00;;
25175;SDS011;13135;55.166;61.286;2022-10-31T11:55:14;3.63;;;2.83;;
25175;SDS011;13135;55.166;61.286;2022-10-31T12:01:04;3.87;;;3.20;;
25175;SDS011;13135;55.166;61.286;2022-10-31T12:03:54;4.47;;;2.93;;
25175;SDS011;13135;55.166;61.286;2022-10-31T12:06:41;5.33;;;2.70;;
25175;SDS011;13135;55.166;61.286;2022-10-31T12:09:24;3.50;;;2.77;;
25175;SDS011;13135;55.166;61.286;2022-10-31T12:12:19;4.13;;;3.20;;
25175;SDS011;13135;55.166;61.286;2022-10-31T12:15:11;3.33;;;2.70;;
25175;SDS011;13135;55.166;61.286;2022-10-31T12:18:17;3.67;;;2.60;;
25175;SDS011;13135;55.166;61.286;2022-10-31T12:30:20;3.53;;;2.87;;
25175;SDS011;13135;55.166;61.286;2022-10-31T12:33:15;3.20;;;2.70;;
25175;SDS011;13135;55.166;61.286;2022-10-31T12:36:10;3.83;;;2.90;;
25175;SDS011;13135;55.166;61.286;2022-10-31T12:38:58;4.00;;;3.30;;
25175;SDS011;13135;55.166;61.286;2022-10-31T12:41:47;4.07;;;2.80;;
25175;SDS011;13135;55.166;61.286;2022-10-31T12:44:37;5.77;;;3.27;;
25175;SDS011;13135;55.166;61.286;2022-10-31T12:50:31;4.63;;;3.20;;
25175;SDS011;13135;55.166;61.286;2022-10-31T12:53:38;3.83;;;2.90;;
25175;SDS011;13135;55.166;61.286;2022-10-31T12:59:10;4.53;;;3.17;;
25175;SDS011;13135;55.166;61.286;2022-10-31T13:05:03;5.07;;;3.30;;
25175;SDS011;13135;55.166;61.286;2022-10-31T13:07:53;4.70;;;3.17;;
25175;SDS011;13135;55.166;61.286;2022-10-31T13:10:42;4.77;;;3.53;;
25175;SDS011;13135;55.166;61.286;2022-10-31T13:13:30;4.90;;;3.40;;
25175;SDS011;13135;55.166;61.286;2022-10-31T13:16:14;5.67;;;3.93;;
25175;SDS011;13135;55.166;61.286;2022-10-31T13:18:59;6.00;;;3.70;;
25175;SDS011;13135;55.166;61.286;2022-10-31T13:22:00;6.67;;;4.17;;
25175;SDS011;13135;55.166;61.286;2022-10-31T13:24:52;8.77;;;4.87;;
25175;SDS011;13135;55.166;61.286;2022-10-31T13:27:44;7.77;;;4.37;;
25175;SDS011;13135;55.166;61.286;2022-10-31T13:30:33;6.50;;;4.37;;
25175;SDS011;13135;55.166;61.286;2022-10-31T13:33:31;6.03;;;4.00;;
25175;SDS011;13135;55.166;61.286;2022-10-31T13:36:21;6.20;;;3.93;;
25175;SDS011;13135;55.166;61.286;2022-10-31T13:39:34;5.27;;;3.53;;
25175;SDS011;13135;55.166;61.286;2022-10-31T13:45:23;7.10;;;4.70;;
25175;SDS011;13135;55.166;61.286;2022-10-31T13:57:06;6.63;;;4.50;;
25175;SDS011;13135;55.166;61.286;2022-10-31T14:00:05;9.93;;;5.47;;
25175;SDS011;13135;55.166;61.286;2022-10-31T14:02:56;7.47;;;4.57;;
25175;SDS011;13135;55.166;61.286;2022-10-31T14:05:40;6.43;;;4.37;;
25175;SDS011;13135;55.166;61.286;2022-10-31T14:08:26;6.40;;;4.07;;
25175;SDS011;13135;55.166;61.286;2022-10-31T14:11:16;6.37;;;4.23;;
25175;SDS011;13135;55.166;61.286;2022-10-31T14:13:56;6.50;;;4.00;;
25175;SDS011;13135;55.166;61.286;2022-10-31T14:16:38;6.80;;;4.53;;
25175;SDS011;13135;55.166;61.286;2022-10-31T14:19:20;6.27;;;4.20;;
25175;SDS011;13135;55.166;61.286;2022-10-31T14:22:18;5.23;;;3.80;;
25175;SDS011;13135;55.166;61.286;2022-10-31T14:24:49;6.33;;;4.23;;
25175;SDS011;13135;55.166;61.286;2022-10-31T14:27:33;5.80;;;3.80;;
25175;SDS011;13135;55.166;61.286;2022-10-31T14:30:19;6.07;;;3.93;;
25175;SDS011;13135;55.166;61.286;2022-10-31T14:33:11;7.27;;;4.30;;
25175;SDS011;13135;55.166;61.286;2022-10-31T14:35:54;6.70;;;4.60;;
25175;SDS011;13135;55.166;61.286;2022-10-31T14:51:21;6.97;;;3.93;;
25175;SDS011;13135;55.166;61.286;2022-10-31T14:54:05;5.83;;;4.00;;
25175;SDS011;13135;55.166;61.286;2022-10-31T14:56:50;5.53;;;3.87;;
25175;SDS011;13135;55.166;61.286;2022-10-31T14:59:35;5.33;;;4.07;;
25175;SDS011;13135;55.166;61.286;2022-10-31T15:02:20;6.20;;;3.87;;
25175;SDS011;13135;55.166;61.286;2022-10-31T15:05:08;6.53;;;4.27;;
25175;SDS011;13135;55.166;61.286;2022-10-31T15:07:53;8.53;;;5.60;;
25175;SDS011;13135;55.166;61.286;2022-10-31T15:10:38;9.00;;;5.43;;
25175;SDS011;13135;55.166;61.286;2022-10-31T15:13:22;10.93;;;5.73;;
25175;SDS011;13135;55.166;61.286;2022-10-31T15:16:07;14.60;;;7.60;;
25175;SDS011;13135;55.166;61.286;2022-10-31T15:18:53;16.73;;;8.50;;
25175;SDS011;13135;55.166;61.286;2022-10-31T15:21:40;16.67;;;7.60;;
25175;SDS011;13135;55.166;61.286;2022-10-31T15:24:24;19.60;;;9.03;;
25175;SDS011;13135;55.166;61.286;2022-10-31T15:27:09;20.10;;;9.67;;
25175;SDS011;13135;55.166;61.286;2022-10-31T15:29:55;16.97;;;9.23;;
25175;SDS011;13135;55.166;61.286;2022-10-31T15:32:39;17.47;;;9.27;;
25175;SDS011;13135;55.166;61.286;2022-10-31T15:35:28;14.53;;;8.10;;
25175;SDS011;13135;55.166;61.286;2022-10-31T15:38:12;17.73;;;8.70;;
25175;SDS011;13135;55.166;61.286;2022-10-31T15:40:54;16.07;;;8.70;;
25175;SDS011;13135;55.166;61.286;2022-10-31T15:43:38;14.00;;;7.90;;
25175;SDS011;13135;55.166;61.286;2022-10-31T15:46:23;12.07;;;7.63;;
25175;SDS011;13135;55.166;61.286;2022-10-31T15:49:12;12.27;;;7.10;;
25175;SDS011;13135;55.166;61.286;2022-10-31T15:51:55;9.10;;;5.63;;
25175;SDS011;13135;55.166;61.286;2022-10-31T15:54:43;12.70;;;7.30;;
25175;SDS011;13135;55.166;61.286;2022-10-31T15:57:43;13.13;;;7.43;;
25175;SDS011;13135;55.166;61.286;2022-10-31T16:00:30;11.93;;;6.97;;
25175;SDS011;13135;55.166;61.286;2022-10-31T16:06:18;11.50;;;6.70;;
25175;SDS011;13135;55.166;61.286;2022-10-31T16:09:02;12.90;;;7.37;;
25175;SDS011;13135;55.166;61.286;2022-10-31T16:11:47;11.80;;;7.27;;
25175;SDS011;13135;55.166;61.286;2022-10-31T16:14:32;13.17;;;7.50;;
25175;SDS011;13135;55.166;61.286;2022-10-31T16:17:17;10.87;;;7.03;;
25175;SDS011;13135;55.166;61.286;2022-10-31T16:20:03;12.37;;;7.10;;
25175;SDS011;13135;55.166;61.286;2022-10-31T16:22:48;10.90;;;6.73;;
25175;SDS011;13135;55.166;61.286;2022-10-31T16:25:36;11.03;;;7.07;;
25175;SDS011;13135;55.166;61.286;2022-10-31T16:28:19;11.93;;;7.27;;
25175;SDS011;13135;55.166;61.286;2022-10-31T16:31:11;12.30;;;7.57;;
25175;SDS011;13135;55.166;61.286;2022-10-31T16:33:47;10.70;;;6.40;;
25175;SDS011;13135;55.166;61.286;2022-10-31T16:36:33;10.97;;;6.93;;
25175;SDS011;13135;55.166;61.286;2022-10-31T16:39:20;11.10;;;6.47;;
25175;SDS011;13135;55.166;61.286;2022-10-31T16:42:04;10.50;;;6.73;;
25175;SDS011;13135;55.166;61.286;2022-10-31T16:44:49;11.13;;;7.33;;
25175;SDS011;13135;55.166;61.286;2022-10-31T16:47:34;13.47;;;7.47;;
25175;SDS011;13135;55.166;61.286;2022-10-31T16:50:23;11.33;;;7.20;;
25175;SDS011;13135;55.166;61.286;2022-10-31T16:53:10;11.77;;;7.10;;
25175;SDS011;13135;55.166;61.286;2022-10-31T16:55:55;13.27;;;7.93;;
25175;SDS011;13135;55.166;61.286;2022-10-31T16:58:40;12.17;;;7.00;;
25175;SDS011;13135;55.166;61.286;2022-10-31T17:01:25;13.90;;;7.97;;
25175;SDS011;13135;55.166;61.286;2022-10-31T17:04:12;10.57;;;6.97;;
25175;SDS011;13135;55.166;61.286;2022-10-31T17:06:55;12.57;;;7.20;;
25175;SDS011;13135;55.166;61.286;2022-10-31T17:09:40;14.07;;;7.37;;
25175;SDS011;13135;55.166;61.286;2022-10-31T17:12:24;11.23;;;6.37;;
25175;SDS011;13135;55.166;61.286;2022-10-31T17:15:14;12.57;;;7.00;;
25175;SDS011;13135;55.166;61.286;2022-10-31T17:18:00;11.73;;;6.20;;
25175;SDS011;13135;55.166;61.286;2022-10-31T17:20:44;12.70;;;6.93;;
25175;SDS011;13135;55.166;61.286;2022-10-31T17:23:29;15.93;;;7.67;;
25175;SDS011;13135;55.166;61.286;2022-10-31T17:26:14;15.77;;;8.50;;
25175;SDS011;13135;55.166;61.286;2022-10-31T17:29:07;19.10;;;7.77;;
25175;SDS011;13135;55.166;61.286;2022-10-31T17:31:51;14.33;;;7.57;;
25175;SDS011;13135;55.166;61.286;2022-10-31T17:34:36;14.10;;;7.33;;
25175;SDS011;13135;55.166;61.286;2022-10-31T17:37:21;16.13;;;6.90;;
25175;SDS011;13135;55.166;61.286;2022-10-31T17:40:05;16.73;;;8.50;;